Аэропорт: Мирный. Мирный

ICAO: UERR

METAR:
2019/05/26 14:00
UERR 261400Z VRB01MPS CAVOK 10/M04 Q1018 R25/CLRD60 NOSIG RMK QFE732
METAR:
2019/05/26 12:21
TAF UERR 261100Z 2612/2712 VRB01MPS 9999 SCT030 
      BECMG 2701/2703 27004G09MPS